Estación Meteorológica Peña el Pijo (Robertgarden) [ 07/19/24 13:41:56 CEST ]

Fecha Hora Presion(HPa) Temp (°C) Humedad % Rocio (°C) Viento ( m/s) Direccion Lluvia 1Hora(mm) Lluvia 24H(mm) LLuvia Total(mm)
2015-Jan-11 01:01:14 1020.500 1.0 43 -10.3         195.80
2015-Jan-11 02:03:12 1019.900 -1.8 50 -10.8         195.80
2015-Jan-11 03:01:13 1019.700 -1.8 55 -9.7         195.80
2015-Jan-11 04:01:13 1019.400 -2.2 57 -9.6         195.80
2015-Jan-11 05:01:17 1019.200 -2.6 59 -9.5         195.80
2015-Jan-11 06:01:14 1019.000 -1.2 63 -7.4         195.80
2015-Jan-11 07:01:11 1019.000 -0.2 61 -6.8         195.80
2015-Jan-11 08:01:12 1019.200 -1.5 63 -7.7         195.80
2015-Jan-11 09:01:13 1019.400 -2.1 64 -8.0         195.80
2015-Jan-11 10:01:13 1020.200 3.3 64 -2.9         195.80
2015-Jan-11 11:01:16 1020.500 11.8 42 -0.8         195.80
2015-Jan-11 12:01:15 1019.700 16.4 23 -5.0         195.80
2015-Jan-11 13:01:13 1018.500 17.5 20 -5.7         195.80
2015-Jan-11 14:01:14 1018.200 19.2 16 -7.8         195.80
2015-Jan-11 15:01:14 1017.900 20.1 16 -7.1         195.80
2015-Jan-11 16:01:17 1017.900 19.1 16 -7.9         195.80
2015-Jan-11 17:01:14 1018.400 15.6 18 -9.0         195.80
2015-Jan-11 18:01:15 1019.000 11.6 26 -7.5         195.80
2015-Jan-11 19:01:11 1020.200 6.1 37 -7.6         195.80
2015-Jan-11 20:01:15 1020.500 3.1 41 -8.9         195.80
2015-Jan-11 21:01:15 1021.200 1.3 48 -8.6         195.80
2015-Jan-11 22:01:16 1021.300 0.4 52 -8.4         195.80
2015-Jan-11 23:01:13 1021.700 -0.2 56 -8.0         195.80

Temperatura Máxima:20°    Temperatura Mínima:-2°
Presión Máxima:1021.700 Hpa    Presión Mínima:1017.900 Hpa


Volver